sensor_id;sensor_type;location;lat;lon;timestamp;P1;durP1;ratioP1;P2;durP2;ratioP2
17496;SDS011;62150;43.582;1.456;2023-12-20T06:41:15;5.00;;;2.60;;
17496;SDS011;62150;43.582;1.456;2023-12-20T06:43:42;4.63;;;2.33;;
17496;SDS011;62150;43.582;1.456;2023-12-20T06:46:10;3.80;;;2.40;;
17496;SDS011;62150;43.582;1.456;2023-12-20T06:48:38;4.37;;;2.40;;
17496;SDS011;62150;43.582;1.456;2023-12-20T06:51:06;3.93;;;2.47;;
17496;SDS011;62150;43.582;1.456;2023-12-20T06:53:37;4.27;;;2.40;;
17496;SDS011;62150;43.582;1.456;2023-12-20T06:56:05;6.10;;;2.40;;
17496;SDS011;62150;43.582;1.456;2023-12-20T06:58:35;3.60;;;2.20;;
17496;SDS011;62150;43.582;1.456;2023-12-20T07:01:03;4.10;;;2.07;;
17496;SDS011;62150;43.582;1.456;2023-12-20T07:03:30;3.37;;;2.10;;
17496;SDS011;62150;43.582;1.456;2023-12-20T07:05:58;3.13;;;1.97;;
17496;SDS011;62150;43.582;1.456;2023-12-20T07:08:25;2.77;;;1.90;;
17496;SDS011;62150;43.582;1.456;2023-12-20T07:10:53;2.17;;;1.80;;
17496;SDS011;62150;43.582;1.456;2023-12-20T07:13:20;3.27;;;2.10;;
17496;SDS011;62150;43.582;1.456;2023-12-20T07:15:49;3.40;;;1.90;;
17496;SDS011;62150;43.582;1.456;2023-12-20T07:18:17;2.70;;;2.00;;
17496;SDS011;62150;43.582;1.456;2023-12-20T07:20:44;3.20;;;2.20;;
17496;SDS011;62150;43.582;1.456;2023-12-20T07:23:13;2.87;;;2.00;;
17496;SDS011;62150;43.582;1.456;2023-12-20T07:25:40;3.07;;;2.00;;
17496;SDS011;62150;43.582;1.456;2023-12-20T07:28:08;3.53;;;2.00;;
17496;SDS011;62150;43.582;1.456;2023-12-20T07:30:35;5.53;;;2.20;;
17496;SDS011;62150;43.582;1.456;2023-12-20T07:33:04;4.40;;;2.20;;
17496;SDS011;62150;43.582;1.456;2023-12-20T07:35:34;3.77;;;2.20;;
17496;SDS011;62150;43.582;1.456;2023-12-20T07:38:01;4.00;;;2.37;;
17496;SDS011;62150;43.582;1.456;2023-12-20T07:40:29;4.77;;;2.17;;
17496;SDS011;62150;43.582;1.456;2023-12-20T07:42:56;3.67;;;2.30;;
17496;SDS011;62150;43.582;1.456;2023-12-20T07:45:24;5.80;;;2.50;;
17496;SDS011;62150;43.582;1.456;2023-12-20T07:47:51;7.00;;;2.40;;
17496;SDS011;62150;43.582;1.456;2023-12-20T07:50:20;4.80;;;2.30;;
17496;SDS011;62150;43.582;1.456;2023-12-20T07:52:48;3.93;;;2.40;;
17496;SDS011;62150;43.582;1.456;2023-12-20T07:55:15;4.23;;;2.20;;
17496;SDS011;62150;43.582;1.456;2023-12-20T07:57:44;3.57;;;2.03;;
17496;SDS011;62150;43.582;1.456;2023-12-20T08:00:12;3.60;;;2.10;;
17496;SDS011;62150;43.582;1.456;2023-12-20T08:02:40;3.23;;;2.00;;
17496;SDS011;62150;43.582;1.456;2023-12-20T08:05:08;4.07;;;2.33;;
17496;SDS011;62150;43.582;1.456;2023-12-20T08:07:37;4.30;;;2.17;;
17496;SDS011;62150;43.582;1.456;2023-12-20T08:10:05;3.10;;;2.00;;
17496;SDS011;62150;43.582;1.456;2023-12-20T08:12:33;3.97;;;2.30;;
17496;SDS011;62150;43.582;1.456;2023-12-20T08:15:01;2.83;;;2.00;;
17496;SDS011;62150;43.582;1.456;2023-12-20T08:17:29;4.40;;;2.17;;
17496;SDS011;62150;43.582;1.456;2023-12-20T08:19:56;3.53;;;2.27;;
17496;SDS011;62150;43.582;1.456;2023-12-20T08:22:25;3.40;;;2.20;;
17496;SDS011;62150;43.582;1.456;2023-12-20T08:24:54;4.27;;;2.33;;
17496;SDS011;62150;43.582;1.456;2023-12-20T08:27:21;3.63;;;2.03;;
17496;SDS011;62150;43.582;1.456;2023-12-20T08:29:49;4.00;;;2.20;;
17496;SDS011;62150;43.582;1.456;2023-12-20T08:32:16;3.80;;;2.20;;
17496;SDS011;62150;43.582;1.456;2023-12-20T08:34:44;3.03;;;2.30;;
17496;SDS011;62150;43.582;1.456;2023-12-20T08:37:11;4.23;;;2.40;;
17496;SDS011;62150;43.582;1.456;2023-12-20T08:39:39;4.80;;;2.60;;
17496;SDS011;62150;43.582;1.456;2023-12-20T08:42:07;5.50;;;2.63;;
17496;SDS011;62150;43.582;1.456;2023-12-20T08:44:35;3.10;;;2.30;;
17496;SDS011;62150;43.582;1.456;2023-12-20T08:47:03;5.00;;;2.53;;
17496;SDS011;62150;43.582;1.456;2023-12-20T08:49:31;5.53;;;2.87;;
17496;SDS011;62150;43.582;1.456;2023-12-20T08:51:58;6.57;;;3.00;;
17496;SDS011;62150;43.582;1.456;2023-12-20T08:54:26;4.00;;;2.50;;
17496;SDS011;62150;43.582;1.456;2023-12-20T08:56:53;6.53;;;2.60;;
17496;SDS011;62150;43.582;1.456;2023-12-20T08:59:22;6.30;;;2.50;;
17496;SDS011;62150;43.582;1.456;2023-12-20T09:01:50;4.43;;;2.60;;
17496;SDS011;62150;43.582;1.456;2023-12-20T09:04:19;7.00;;;2.50;;
17496;SDS011;62150;43.582;1.456;2023-12-20T09:06:47;5.63;;;2.53;;
17496;SDS011;62150;43.582;1.456;2023-12-20T09:09:14;6.00;;;2.73;;
17496;SDS011;62150;43.582;1.456;2023-12-20T09:11:42;4.23;;;2.50;;
17496;SDS011;62150;43.582;1.456;2023-12-20T09:14:11;5.53;;;2.53;;
17496;SDS011;62150;43.582;1.456;2023-12-20T09:16:40;4.83;;;2.63;;
17496;SDS011;62150;43.582;1.456;2023-12-20T09:19:07;5.27;;;2.50;;
17496;SDS011;62150;43.582;1.456;2023-12-20T09:21:35;4.30;;;2.43;;
17496;SDS011;62150;43.582;1.456;2023-12-20T09:24:03;5.20;;;2.27;;
17496;SDS011;62150;43.582;1.456;2023-12-20T09:26:30;5.10;;;2.60;;
17496;SDS011;62150;43.582;1.456;2023-12-20T09:28:58;5.33;;;2.70;;
17496;SDS011;62150;43.582;1.456;2023-12-20T09:31:26;4.80;;;2.50;;
17496;SDS011;62150;43.582;1.456;2023-12-20T09:33:54;5.60;;;2.83;;
17496;SDS011;62150;43.582;1.456;2023-12-20T09:36:22;5.03;;;2.40;;
17496;SDS011;62150;43.582;1.456;2023-12-20T09:38:49;6.07;;;2.90;;
17496;SDS011;62150;43.582;1.456;2023-12-20T09:41:17;5.03;;;2.70;;
17496;SDS011;62150;43.582;1.456;2023-12-20T09:43:45;7.43;;;2.70;;
17496;SDS011;62150;43.582;1.456;2023-12-20T09:46:14;5.23;;;2.40;;
17496;SDS011;62150;43.582;1.456;2023-12-20T09:48:49;5.10;;;2.40;;
17496;SDS011;62150;43.582;1.456;2023-12-20T09:51:18;8.07;;;2.77;;
17496;SDS011;62150;43.582;1.456;2023-12-20T09:53:47;4.50;;;2.00;;
17496;SDS011;62150;43.582;1.456;2023-12-20T09:56:15;3.47;;;1.97;;
17496;SDS011;62150;43.582;1.456;2023-12-20T09:58:42;7.43;;;1.97;;
17496;SDS011;62150;43.582;1.456;2023-12-20T10:01:10;5.03;;;2.00;;
17496;SDS011;62150;43.582;1.456;2023-12-20T10:03:38;5.07;;;2.10;;
17496;SDS011;62150;43.582;1.456;2023-12-20T10:06:07;5.60;;;2.07;;
17496;SDS011;62150;43.582;1.456;2023-12-20T10:08:36;3.73;;;1.90;;
17496;SDS011;62150;43.582;1.456;2023-12-20T10:11:04;6.67;;;2.30;;
17496;SDS011;62150;43.582;1.456;2023-12-20T10:13:32;5.33;;;2.13;;
17496;SDS011;62150;43.582;1.456;2023-12-20T10:16:00;4.77;;;1.87;;
17496;SDS011;62150;43.582;1.456;2023-12-20T10:18:28;4.83;;;1.90;;
17496;SDS011;62150;43.582;1.456;2023-12-20T10:20:56;4.07;;;1.90;;
17496;SDS011;62150;43.582;1.456;2023-12-20T10:23:24;2.97;;;1.83;;
17496;SDS011;62150;43.582;1.456;2023-12-20T10:25:57;2.80;;;2.00;;
17496;SDS011;62150;43.582;1.456;2023-12-20T10:28:25;4.50;;;2.00;;
17496;SDS011;62150;43.582;1.456;2023-12-20T10:30:53;4.23;;;2.00;;
17496;SDS011;62150;43.582;1.456;2023-12-20T10:33:25;5.07;;;2.10;;
17496;SDS011;62150;43.582;1.456;2023-12-20T10:35:54;5.40;;;2.00;;
17496;SDS011;62150;43.582;1.456;2023-12-20T10:38:22;2.53;;;1.83;;
17496;SDS011;62150;43.582;1.456;2023-12-20T10:40:49;4.23;;;2.07;;
17496;SDS011;62150;43.582;1.456;2023-12-20T10:43:24;3.77;;;1.90;;
17496;SDS011;62150;43.582;1.456;2023-12-20T10:45:52;6.73;;;2.10;;
17496;SDS011;62150;43.582;1.456;2023-12-20T10:48:20;3.93;;;1.90;;
17496;SDS011;62150;43.582;1.456;2023-12-20T10:50:54;4.53;;;1.90;;
17496;SDS011;62150;43.582;1.456;2023-12-20T10:53:24;3.77;;;1.80;;
17496;SDS011;62150;43.582;1.456;2023-12-20T10:55:52;3.60;;;1.83;;
17496;SDS011;62150;43.582;1.456;2023-12-20T10:58:23;3.27;;;1.80;;
17496;SDS011;62150;43.582;1.456;2023-12-20T11:00:53;2.13;;;1.70;;
17496;SDS011;62150;43.582;1.456;2023-12-20T11:03:26;1.63;;;1.53;;
17496;SDS011;62150;43.582;1.456;2023-12-20T11:05:59;3.47;;;1.67;;
17496;SDS011;62150;43.582;1.456;2023-12-20T11:08:32;3.60;;;1.70;;
17496;SDS011;62150;43.582;1.456;2023-12-20T11:11:06;2.67;;;1.80;;
17496;SDS011;62150;43.582;1.456;2023-12-20T11:13:43;3.43;;;1.60;;
17496;SDS011;62150;43.582;1.456;2023-12-20T11:16:14;3.27;;;1.60;;
17496;SDS011;62150;43.582;1.456;2023-12-20T11:18:40;4.03;;;1.83;;
17496;SDS011;62150;43.582;1.456;2023-12-20T11:21:08;2.67;;;1.80;;
17496;SDS011;62150;43.582;1.456;2023-12-20T11:23:39;3.57;;;1.80;;
17496;SDS011;62150;43.582;1.456;2023-12-20T11:26:09;2.87;;;1.80;;
17496;SDS011;62150;43.582;1.456;2023-12-20T11:28:36;3.30;;;1.80;;
17496;SDS011;62150;43.582;1.456;2023-12-20T11:31:05;2.57;;;1.67;;
17496;SDS011;62150;43.582;1.456;2023-12-20T11:33:36;2.53;;;1.57;;
17496;SDS011;62150;43.582;1.456;2023-12-20T11:36:12;6.80;;;1.87;;
17496;SDS011;62150;43.582;1.456;2023-12-20T11:38:50;3.10;;;1.70;;
17496;SDS011;62150;43.582;1.456;2023-12-20T11:41:22;4.77;;;1.80;;
17496;SDS011;62150;43.582;1.456;2023-12-20T11:43:52;3.00;;;1.70;;
17496;SDS011;62150;43.582;1.456;2023-12-20T11:46:21;4.37;;;1.80;;
17496;SDS011;62150;43.582;1.456;2023-12-20T11:48:49;3.43;;;1.80;;
17496;SDS011;62150;43.582;1.456;2023-12-20T11:51:17;3.93;;;1.77;;
17496;SDS011;62150;43.582;1.456;2023-12-20T11:53:45;5.63;;;1.90;;
17496;SDS011;62150;43.582;1.456;2023-12-20T11:56:19;4.40;;;1.97;;
17496;SDS011;62150;43.582;1.456;2023-12-20T11:58:46;5.60;;;1.70;;
17496;SDS011;62150;43.582;1.456;2023-12-20T12:01:14;6.17;;;1.90;;
17496;SDS011;62150;43.582;1.456;2023-12-20T12:03:43;4.30;;;1.80;;
17496;SDS011;62150;43.582;1.456;2023-12-20T12:06:10;5.83;;;2.13;;
17496;SDS011;62150;43.582;1.456;2023-12-20T12:08:38;3.87;;;1.70;;
17496;SDS011;62150;43.582;1.456;2023-12-20T12:11:07;6.10;;;1.80;;
17496;SDS011;62150;43.582;1.456;2023-12-20T12:13:35;2.33;;;1.50;;
17496;SDS011;62150;43.582;1.456;2023-12-20T12:16:03;3.23;;;1.63;;
17496;SDS011;62150;43.582;1.456;2023-12-20T12:18:31;7.10;;;1.97;;
17496;SDS011;62150;43.582;1.456;2023-12-20T12:21:01;5.37;;;1.80;;
17496;SDS011;62150;43.582;1.456;2023-12-20T12:23:29;4.87;;;1.60;;
17496;SDS011;62150;43.582;1.456;2023-12-20T12:25:56;13.33;;;2.43;;
17496;SDS011;62150;43.582;1.456;2023-12-20T12:28:25;6.70;;;1.90;;
17496;SDS011;62150;43.582;1.456;2023-12-20T12:30:57;4.73;;;1.60;;
17496;SDS011;62150;43.582;1.456;2023-12-20T12:33:25;6.03;;;1.63;;
17496;SDS011;62150;43.582;1.456;2023-12-20T12:35:52;3.40;;;1.30;;
17496;SDS011;62150;43.582;1.456;2023-12-20T12:38:22;4.80;;;1.60;;
17496;SDS011;62150;43.582;1.456;2023-12-20T12:40:51;3.00;;;1.50;;
17496;SDS011;62150;43.582;1.456;2023-12-20T12:43:19;52.53;;;6.20;;
17496;SDS011;62150;43.582;1.456;2023-12-20T12:45:47;6.50;;;1.90;;
17496;SDS011;62150;43.582;1.456;2023-12-20T12:48:15;4.33;;;1.60;;
17496;SDS011;62150;43.582;1.456;2023-12-20T12:50:43;5.80;;;1.83;;
17496;SDS011;62150;43.582;1.456;2023-12-20T12:53:11;3.23;;;1.80;;
17496;SDS011;62150;43.582;1.456;2023-12-20T12:55:40;4.90;;;1.70;;
17496;SDS011;62150;43.582;1.456;2023-12-20T12:58:07;3.80;;;1.40;;
17496;SDS011;62150;43.582;1.456;2023-12-20T13:00:35;4.40;;;1.70;;
17496;SDS011;62150;43.582;1.456;2023-12-20T13:03:02;4.73;;;1.50;;
17496;SDS011;62150;43.582;1.456;2023-12-20T13:05:30;3.70;;;1.50;;
17496;SDS011;62150;43.582;1.456;2023-12-20T13:07:58;5.63;;;1.60;;
17496;SDS011;62150;43.582;1.456;2023-12-20T13:10:25;3.17;;;1.40;;
17496;SDS011;62150;43.582;1.456;2023-12-20T13:12:54;2.80;;;1.53;;
17496;SDS011;62150;43.582;1.456;2023-12-20T13:15:22;4.90;;;1.70;;
17496;SDS011;62150;43.582;1.456;2023-12-20T13:17:49;5.60;;;1.63;;
17496;SDS011;62150;43.582;1.456;2023-12-20T13:20:17;4.63;;;1.87;;
17496;SDS011;62150;43.582;1.456;2023-12-20T13:22:44;3.27;;;1.67;;
17496;SDS011;62150;43.582;1.456;2023-12-20T13:25:12;4.90;;;1.77;;
17496;SDS011;62150;43.582;1.456;2023-12-20T13:27:39;5.50;;;1.70;;
17496;SDS011;62150;43.582;1.456;2023-12-20T13:30:10;6.53;;;1.80;;
17496;SDS011;62150;43.582;1.456;2023-12-20T13:32:38;4.10;;;1.83;;
17496;SDS011;62150;43.582;1.456;2023-12-20T13:35:06;6.13;;;1.90;;
17496;SDS011;62150;43.582;1.456;2023-12-20T13:37:34;4.57;;;1.80;;
17496;SDS011;62150;43.582;1.456;2023-12-20T13:40:01;4.70;;;1.90;;
17496;SDS011;62150;43.582;1.456;2023-12-20T13:42:29;6.37;;;2.00;;
17496;SDS011;62150;43.582;1.456;2023-12-20T13:44:57;6.93;;;1.90;;
17496;SDS011;62150;43.582;1.456;2023-12-20T13:47:26;5.17;;;1.70;;
17496;SDS011;62150;43.582;1.456;2023-12-20T13:49:54;5.30;;;1.77;;
17496;SDS011;62150;43.582;1.456;2023-12-20T13:52:22;3.97;;;1.70;;
17496;SDS011;62150;43.582;1.456;2023-12-20T13:54:49;6.00;;;1.60;;
17496;SDS011;62150;43.582;1.456;2023-12-20T13:57:17;5.00;;;1.80;;
17496;SDS011;62150;43.582;1.456;2023-12-20T13:59:44;6.13;;;2.13;;
17496;SDS011;62150;43.582;1.456;2023-12-20T14:02:12;5.97;;;1.63;;
17496;SDS011;62150;43.582;1.456;2023-12-20T14:04:41;6.10;;;1.60;;
17496;SDS011;62150;43.582;1.456;2023-12-20T14:07:09;5.00;;;1.90;;
17496;SDS011;62150;43.582;1.456;2023-12-20T14:09:36;7.77;;;1.90;;
17496;SDS011;62150;43.582;1.456;2023-12-20T14:12:04;4.47;;;1.70;;
17496;SDS011;62150;43.582;1.456;2023-12-20T14:14:31;4.57;;;1.87;;
17496;SDS011;62150;43.582;1.456;2023-12-20T14:16:59;7.40;;;2.00;;
17496;SDS011;62150;43.582;1.456;2023-12-20T14:19:26;4.60;;;1.60;;
17496;SDS011;62150;43.582;1.456;2023-12-20T14:21:55;5.83;;;1.80;;
17496;SDS011;62150;43.582;1.456;2023-12-20T14:24:26;4.67;;;1.80;;
17496;SDS011;62150;43.582;1.456;2023-12-20T14:26:53;4.47;;;1.90;;
17496;SDS011;62150;43.582;1.456;2023-12-20T14:29:21;7.43;;;1.77;;
17496;SDS011;62150;43.582;1.456;2023-12-20T14:31:48;5.20;;;1.83;;
17496;SDS011;62150;43.582;1.456;2023-12-20T14:34:16;3.50;;;1.50;;
17496;SDS011;62150;43.582;1.456;2023-12-20T14:36:43;6.73;;;1.80;;
17496;SDS011;62150;43.582;1.456;2023-12-20T14:39:12;6.27;;;1.77;;
17496;SDS011;62150;43.582;1.456;2023-12-20T14:41:40;4.57;;;1.77;;
17496;SDS011;62150;43.582;1.456;2023-12-20T14:44:08;4.30;;;1.80;;
17496;SDS011;62150;43.582;1.456;2023-12-20T14:46:36;6.07;;;1.80;;
17496;SDS011;62150;43.582;1.456;2023-12-20T14:49:04;3.97;;;1.70;;
17496;SDS011;62150;43.582;1.456;2023-12-20T14:51:32;5.83;;;1.80;;
17496;SDS011;62150;43.582;1.456;2023-12-20T14:54:01;4.93;;;1.70;;
17496;SDS011;62150;43.582;1.456;2023-12-20T14:56:30;3.40;;;1.43;;
17496;SDS011;62150;43.582;1.456;2023-12-20T14:58:58;4.43;;;1.60;;
17496;SDS011;62150;43.582;1.456;2023-12-20T15:01:25;3.63;;;1.70;;
17496;SDS011;62150;43.582;1.456;2023-12-20T15:03:53;6.03;;;1.57;;
17496;SDS011;62150;43.582;1.456;2023-12-20T15:06:21;4.33;;;1.73;;
17496;SDS011;62150;43.582;1.456;2023-12-20T15:08:50;4.67;;;1.70;;
17496;SDS011;62150;43.582;1.456;2023-12-20T15:11:18;3.93;;;1.60;;
17496;SDS011;62150;43.582;1.456;2023-12-20T15:13:47;5.47;;;1.90;;
17496;SDS011;62150;43.582;1.456;2023-12-20T15:16:20;5.57;;;1.80;;
17496;SDS011;62150;43.582;1.456;2023-12-20T15:18:47;3.50;;;1.47;;
17496;SDS011;62150;43.582;1.456;2023-12-20T15:21:15;5.77;;;1.70;;
17496;SDS011;62150;43.582;1.456;2023-12-20T15:23:43;4.30;;;1.70;;
17496;SDS011;62150;43.582;1.456;2023-12-20T15:26:18;4.97;;;1.97;;
17496;SDS011;62150;43.582;1.456;2023-12-20T15:28:47;4.33;;;1.90;;
17496;SDS011;62150;43.582;1.456;2023-12-20T15:31:14;5.83;;;2.00;;
17496;SDS011;62150;43.582;1.456;2023-12-20T15:33:42;8.93;;;2.40;;
17496;SDS011;62150;43.582;1.456;2023-12-20T15:36:10;4.97;;;2.10;;
17496;SDS011;62150;43.582;1.456;2023-12-20T15:38:37;6.30;;;2.50;;
17496;SDS011;62150;43.582;1.456;2023-12-20T15:41:05;6.67;;;2.20;;
17496;SDS011;62150;43.582;1.456;2023-12-20T15:43:34;5.70;;;2.20;;
17496;SDS011;62150;43.582;1.456;2023-12-20T15:46:03;4.83;;;1.97;;
17496;SDS011;62150;43.582;1.456;2023-12-20T15:48:31;11.03;;;2.40;;
17496;SDS011;62150;43.582;1.456;2023-12-20T15:50:58;4.70;;;1.87;;
17496;SDS011;62150;43.582;1.456;2023-12-20T15:53:30;5.60;;;2.00;;
17496;SDS011;62150;43.582;1.456;2023-12-20T15:55:57;7.33;;;2.40;;
17496;SDS011;62150;43.582;1.456;2023-12-20T15:58:25;6.43;;;2.03;;
17496;SDS011;62150;43.582;1.456;2023-12-20T16:00:53;6.13;;;2.20;;
17496;SDS011;62150;43.582;1.456;2023-12-20T16:03:22;7.17;;;2.10;;
17496;SDS011;62150;43.582;1.456;2023-12-20T16:05:49;6.63;;;2.20;;
17496;SDS011;62150;43.582;1.456;2023-12-20T16:08:17;4.17;;;1.77;;
17496;SDS011;62150;43.582;1.456;2023-12-20T16:10:44;3.97;;;1.80;;
17496;SDS011;62150;43.582;1.456;2023-12-20T16:13:12;7.03;;;2.00;;
17496;SDS011;62150;43.582;1.456;2023-12-20T16:15:40;6.20;;;2.00;;
17496;SDS011;62150;43.582;1.456;2023-12-20T16:18:08;5.00;;;1.87;;
17496;SDS011;62150;43.582;1.456;2023-12-20T16:20:37;5.33;;;2.10;;
17496;SDS011;62150;43.582;1.456;2023-12-20T16:23:06;7.87;;;2.50;;
17496;SDS011;62150;43.582;1.456;2023-12-20T16:25:34;5.97;;;2.57;;
17496;SDS011;62150;43.582;1.456;2023-12-20T16:28:03;5.60;;;2.30;;
17496;SDS011;62150;43.582;1.456;2023-12-20T16:30:31;5.37;;;2.40;;
17496;SDS011;62150;43.582;1.456;2023-12-20T16:32:58;4.97;;;2.23;;
17496;SDS011;62150;43.582;1.456;2023-12-20T16:35:29;7.17;;;2.37;;
17496;SDS011;62150;43.582;1.456;2023-12-20T16:37:58;8.00;;;2.67;;
17496;SDS011;62150;43.582;1.456;2023-12-20T16:40:25;6.37;;;2.70;;
17496;SDS011;62150;43.582;1.456;2023-12-20T16:42:53;6.27;;;2.57;;
17496;SDS011;62150;43.582;1.456;2023-12-20T16:45:21;7.97;;;2.57;;
17496;SDS011;62150;43.582;1.456;2023-12-20T16:47:49;6.27;;;2.10;;
17496;SDS011;62150;43.582;1.456;2023-12-20T16:50:16;8.60;;;2.10;;
17496;SDS011;62150;43.582;1.456;2023-12-20T16:52:44;5.20;;;2.47;;
17496;SDS011;62150;43.582;1.456;2023-12-20T16:55:17;4.33;;;2.17;;
17496;SDS011;62150;43.582;1.456;2023-12-20T16:57:45;4.23;;;2.10;;
17496;SDS011;62150;43.582;1.456;2023-12-20T17:00:13;4.23;;;1.80;;
17496;SDS011;62150;43.582;1.456;2023-12-20T17:02:42;4.63;;;2.20;;
17496;SDS011;62150;43.582;1.456;2023-12-20T17:05:09;4.87;;;2.40;;
17496;SDS011;62150;43.582;1.456;2023-12-20T17:07:37;5.43;;;2.37;;
17496;SDS011;62150;43.582;1.456;2023-12-20T17:10:05;6.70;;;2.30;;
17496;SDS011;62150;43.582;1.456;2023-12-20T17:12:35;6.13;;;2.47;;
17496;SDS011;62150;43.582;1.456;2023-12-20T17:15:03;8.10;;;2.60;;
17496;SDS011;62150;43.582;1.456;2023-12-20T17:17:31;4.90;;;2.03;;
17496;SDS011;62150;43.582;1.456;2023-12-20T17:19:59;4.00;;;2.00;;
17496;SDS011;62150;43.582;1.456;2023-12-20T17:22:26;6.23;;;2.30;;
17496;SDS011;62150;43.582;1.456;2023-12-20T17:24:54;4.97;;;2.33;;
17496;SDS011;62150;43.582;1.456;2023-12-20T17:27:21;7.27;;;2.30;;
17496;SDS011;62150;43.582;1.456;2023-12-20T17:29:50;7.07;;;2.30;;
17496;SDS011;62150;43.582;1.456;2023-12-20T17:32:18;5.87;;;2.30;;
17496;SDS011;62150;43.582;1.456;2023-12-20T17:34:45;4.00;;;1.90;;
17496;SDS011;62150;43.582;1.456;2023-12-20T17:37:14;5.53;;;2.30;;
17496;SDS011;62150;43.582;1.456;2023-12-20T17:39:41;5.00;;;2.10;;
17496;SDS011;62150;43.582;1.456;2023-12-20T17:42:09;5.43;;;2.33;;
17496;SDS011;62150;43.582;1.456;2023-12-20T17:44:38;4.73;;;2.00;;
17496;SDS011;62150;43.582;1.456;2023-12-20T17:47:07;5.10;;;2.17;;
17496;SDS011;62150;43.582;1.456;2023-12-20T17:49:34;5.57;;;2.13;;
17496;SDS011;62150;43.582;1.456;2023-12-20T17:52:02;6.83;;;2.20;;
17496;SDS011;62150;43.582;1.456;2023-12-20T17:54:31;7.10;;;2.23;;
17496;SDS011;62150;43.582;1.456;2023-12-20T17:56:58;9.70;;;2.37;;
17496;SDS011;62150;43.582;1.456;2023-12-20T17:59:26;6.23;;;2.07;;
17496;SDS011;62150;43.582;1.456;2023-12-20T18:01:53;5.23;;;2.20;;
17496;SDS011;62150;43.582;1.456;2023-12-20T18:04:23;7.10;;;2.33;;
17496;SDS011;62150;43.582;1.456;2023-12-20T18:06:51;4.80;;;2.20;;
17496;SDS011;62150;43.582;1.456;2023-12-20T18:09:19;9.63;;;2.87;;
17496;SDS011;62150;43.582;1.456;2023-12-20T18:11:47;6.90;;;2.87;;
17496;SDS011;62150;43.582;1.456;2023-12-20T18:14:15;6.30;;;2.50;;
17496;SDS011;62150;43.582;1.456;2023-12-20T18:16:42;7.40;;;2.50;;
17496;SDS011;62150;43.582;1.456;2023-12-20T18:19:10;6.30;;;2.53;;
17496;SDS011;62150;43.582;1.456;2023-12-20T18:21:39;4.87;;;2.10;;
17496;SDS011;62150;43.582;1.456;2023-12-20T18:24:06;5.83;;;2.40;;
17496;SDS011;62150;43.582;1.456;2023-12-20T18:26:34;7.17;;;2.43;;
17496;SDS011;62150;43.582;1.456;2023-12-20T18:29:03;7.13;;;2.33;;
17496;SDS011;62150;43.582;1.456;2023-12-20T18:31:31;6.60;;;2.30;;
17496;SDS011;62150;43.582;1.456;2023-12-20T18:33:58;3.90;;;2.10;;
17496;SDS011;62150;43.582;1.456;2023-12-20T18:36:26;5.03;;;2.10;;
17496;SDS011;62150;43.582;1.456;2023-12-20T18:38:55;5.40;;;2.20;;
17496;SDS011;62150;43.582;1.456;2023-12-20T18:41:23;5.87;;;2.43;;
17496;SDS011;62150;43.582;1.456;2023-12-20T18:43:49;5.83;;;2.50;;
17496;SDS011;62150;43.582;1.456;2023-12-20T18:46:17;5.47;;;2.33;;
17496;SDS011;62150;43.582;1.456;2023-12-20T18:48:45;6.97;;;2.50;;
17496;SDS011;62150;43.582;1.456;2023-12-20T18:51:13;6.93;;;2.40;;
17496;SDS011;62150;43.582;1.456;2023-12-20T18:53:40;6.07;;;2.43;;
17496;SDS011;62150;43.582;1.456;2023-12-20T18:56:09;7.60;;;2.60;;
17496;SDS011;62150;43.582;1.456;2023-12-20T18:58:37;8.13;;;2.80;;
17496;SDS011;62150;43.582;1.456;2023-12-20T19:01:04;6.50;;;2.73;;
17496;SDS011;62150;43.582;1.456;2023-12-20T19:03:32;4.80;;;2.60;;
17496;SDS011;62150;43.582;1.456;2023-12-20T19:05:59;6.27;;;2.60;;
17496;SDS011;62150;43.582;1.456;2023-12-20T19:08:28;10.20;;;2.60;;
17496;SDS011;62150;43.582;1.456;2023-12-20T19:10:55;6.60;;;2.70;;
17496;SDS011;62150;43.582;1.456;2023-12-20T19:13:24;7.03;;;2.70;;
17496;SDS011;62150;43.582;1.456;2023-12-20T19:15:56;6.67;;;2.43;;
17496;SDS011;62150;43.582;1.456;2023-12-20T19:18:23;5.23;;;2.30;;
17496;SDS011;62150;43.582;1.456;2023-12-20T19:20:51;6.13;;;2.67;;
17496;SDS011;62150;43.582;1.456;2023-12-20T19:23:19;7.10;;;2.70;;
17496;SDS011;62150;43.582;1.456;2023-12-20T19:25:47;6.07;;;2.57;;
17496;SDS011;62150;43.582;1.456;2023-12-20T19:28:14;5.40;;;2.60;;
17496;SDS011;62150;43.582;1.456;2023-12-20T19:30:43;6.47;;;2.67;;
17496;SDS011;62150;43.582;1.456;2023-12-20T19:33:11;6.53;;;2.80;;
17496;SDS011;62150;43.582;1.456;2023-12-20T19:35:38;6.20;;;2.30;;
17496;SDS011;62150;43.582;1.456;2023-12-20T19:38:06;4.57;;;2.50;;
17496;SDS011;62150;43.582;1.456;2023-12-20T19:40:34;8.37;;;3.00;;
17496;SDS011;62150;43.582;1.456;2023-12-20T19:43:02;6.83;;;2.60;;
17496;SDS011;62150;43.582;1.456;2023-12-20T19:45:33;6.10;;;2.60;;
17496;SDS011;62150;43.582;1.456;2023-12-20T19:48:02;5.03;;;2.57;;
17496;SDS011;62150;43.582;1.456;2023-12-20T19:50:30;6.97;;;2.60;;
17496;SDS011;62150;43.582;1.456;2023-12-20T19:52:58;5.43;;;2.60;;
17496;SDS011;62150;43.582;1.456;2023-12-20T19:55:25;7.07;;;2.83;;
17496;SDS011;62150;43.582;1.456;2023-12-20T19:57:53;8.17;;;2.90;;
17496;SDS011;62150;43.582;1.456;2023-12-20T20:00:22;6.00;;;2.50;;
17496;SDS011;62150;43.582;1.456;2023-12-20T20:02:49;4.77;;;2.50;;
17496;SDS011;62150;43.582;1.456;2023-12-20T20:05:18;8.33;;;2.80;;
17496;SDS011;62150;43.582;1.456;2023-12-20T20:07:46;6.30;;;2.60;;
17496;SDS011;62150;43.582;1.456;2023-12-20T20:10:13;6.03;;;2.50;;
17496;SDS011;62150;43.582;1.456;2023-12-20T20:12:41;7.00;;;2.67;;
17496;SDS011;62150;43.582;1.456;2023-12-20T20:15:09;8.80;;;3.50;;
17496;SDS011;62150;43.582;1.456;2023-12-20T20:17:37;7.93;;;3.40;;
17496;SDS011;62150;43.582;1.456;2023-12-20T20:20:05;9.13;;;3.30;;
17496;SDS011;62150;43.582;1.456;2023-12-20T20:22:37;8.73;;;3.23;;
17496;SDS011;62150;43.582;1.456;2023-12-20T20:25:06;10.10;;;3.80;;
17496;SDS011;62150;43.582;1.456;2023-12-20T20:27:34;10.27;;;3.60;;
17496;SDS011;62150;43.582;1.456;2023-12-20T20:30:02;7.87;;;3.20;;
17496;SDS011;62150;43.582;1.456;2023-12-20T20:32:30;6.73;;;3.07;;
17496;SDS011;62150;43.582;1.456;2023-12-20T20:34:58;8.57;;;2.80;;
17496;SDS011;62150;43.582;1.456;2023-12-20T20:37:25;6.57;;;2.80;;
17496;SDS011;62150;43.582;1.456;2023-12-20T20:39:54;7.90;;;2.80;;
17496;SDS011;62150;43.582;1.456;2023-12-20T20:42:23;6.63;;;2.70;;
17496;SDS011;62150;43.582;1.456;2023-12-20T20:44:51;5.73;;;2.40;;
17496;SDS011;62150;43.582;1.456;2023-12-20T20:47:19;5.67;;;2.70;;
17496;SDS011;62150;43.582;1.456;2023-12-20T20:49:46;5.70;;;2.40;;
17496;SDS011;62150;43.582;1.456;2023-12-20T20:52:14;5.30;;;2.63;;
17496;SDS011;62150;43.582;1.456;2023-12-20T20:54:45;7.57;;;2.50;;
17496;SDS011;62150;43.582;1.456;2023-12-20T20:57:13;6.13;;;2.50;;
17496;SDS011;62150;43.582;1.456;2023-12-20T20:59:41;5.43;;;2.73;;
17496;SDS011;62150;43.582;1.456;2023-12-20T21:02:09;6.33;;;2.83;;
17496;SDS011;62150;43.582;1.456;2023-12-20T21:04:36;4.80;;;2.30;;
17496;SDS011;62150;43.582;1.456;2023-12-20T21:07:04;5.70;;;2.53;;
17496;SDS011;62150;43.582;1.456;2023-12-20T21:09:31;5.47;;;2.40;;
17496;SDS011;62150;43.582;1.456;2023-12-20T21:12:02;6.50;;;2.50;;
17496;SDS011;62150;43.582;1.456;2023-12-20T21:14:34;7.77;;;2.30;;
17496;SDS011;62150;43.582;1.456;2023-12-20T21:17:01;4.77;;;2.43;;
17496;SDS011;62150;43.582;1.456;2023-12-20T21:19:29;5.37;;;2.50;;
17496;SDS011;62150;43.582;1.456;2023-12-20T21:21:57;6.80;;;2.60;;
17496;SDS011;62150;43.582;1.456;2023-12-20T21:24:25;7.07;;;2.50;;
17496;SDS011;62150;43.582;1.456;2023-12-20T21:26:53;7.77;;;2.60;;
17496;SDS011;62150;43.582;1.456;2023-12-20T21:29:21;5.60;;;2.33;;
17496;SDS011;62150;43.582;1.456;2023-12-20T21:31:50;6.73;;;2.40;;
17496;SDS011;62150;43.582;1.456;2023-12-20T21:34:18;6.00;;;2.27;;